createdAt,value
2022-08-11T00:01:06.732Z,13.40
2022-08-11T00:03:43.097Z,13.37
2022-08-11T00:06:11.355Z,13.34
2022-08-11T00:08:38.953Z,13.27
2022-08-11T00:11:08.400Z,13.29
2022-08-11T00:13:47.684Z,13.15
2022-08-11T00:16:20.651Z,13.12
2022-08-11T00:18:51.443Z,13.14
2022-08-11T00:21:20.944Z,13.05
2022-08-11T00:24:09.257Z,12.89
2022-08-11T00:26:36.746Z,12.91
2022-08-11T00:29:13.794Z,12.98
2022-08-11T00:31:46.516Z,12.96
2022-08-11T00:34:14.591Z,12.83
2022-08-11T00:37:06.223Z,12.79
2022-08-11T00:39:37.002Z,12.80
2022-08-11T00:42:09.528Z,12.68
2022-08-11T00:44:53.568Z,12.68
2022-08-11T00:47:32.266Z,12.50
2022-08-11T00:50:07.759Z,12.49
2022-08-11T00:52:34.607Z,12.41
2022-08-11T00:55:16.062Z,12.42
2022-08-11T00:58:07.545Z,12.43
2022-08-11T01:00:57.897Z,12.39
2022-08-11T01:03:46.114Z,12.31
2022-08-11T01:06:52.436Z,12.23
2022-08-11T01:09:50.520Z,12.19
2022-08-11T01:12:36.159Z,12.06
2022-08-11T01:15:55.777Z,11.99
2022-08-11T01:18:48.435Z,11.93
2022-08-11T01:22:04.548Z,11.84
2022-08-11T01:24:57.227Z,11.86
2022-08-11T01:28:15.791Z,11.74
2022-08-11T01:31:09.795Z,11.86
2022-08-11T01:34:13.834Z,11.84
2022-08-11T01:36:53.497Z,11.82
2022-08-11T01:39:54.814Z,11.68
2022-08-11T01:43:16.236Z,11.55
2022-08-11T01:46:13.686Z,11.62
2022-08-11T01:48:45.170Z,11.62
2022-08-11T01:51:40.882Z,11.55
2022-08-11T01:54:29.176Z,11.54
2022-08-11T01:57:01.949Z,11.56
2022-08-11T01:59:33.138Z,11.51
2022-08-11T02:02:48.775Z,11.52
2022-08-11T02:05:21.179Z,11.45
2022-08-11T02:08:18.320Z,11.47
2022-08-11T02:11:35.678Z,11.52
2022-08-11T02:14:22.814Z,11.52
2022-08-11T02:17:13.482Z,11.52
2022-08-11T02:20:08.408Z,11.43
2022-08-11T02:22:56.351Z,11.40
2022-08-11T02:25:41.503Z,11.38
2022-08-11T02:28:12.639Z,11.50
2022-08-11T02:31:11.676Z,11.52
2022-08-11T02:34:16.269Z,11.64
2022-08-11T02:36:52.599Z,11.98
2022-08-11T02:39:23.049Z,12.19
2022-08-11T02:42:34.890Z,12.23
2022-08-11T02:45:12.726Z,12.24
2022-08-11T02:48:33.936Z,12.33
2022-08-11T02:51:26.594Z,12.40
2022-08-11T02:54:17.431Z,12.46
2022-08-11T02:57:11.407Z,12.46
2022-08-11T03:00:07.357Z,12.47
2022-08-11T03:02:46.799Z,12.51
2022-08-11T03:05:31.129Z,12.44
2022-08-11T03:08:01.012Z,12.58
2022-08-11T03:11:07.729Z,12.63
2022-08-11T03:13:58.188Z,12.56
2022-08-11T03:16:46.648Z,12.57
2022-08-11T03:19:22.462Z,12.60
2022-08-11T03:22:24.279Z,12.59
2022-08-11T03:25:08.755Z,12.48
2022-08-11T03:28:03.816Z,12.42
2022-08-11T03:30:43.743Z,12.34
2022-08-11T03:33:49.542Z,12.27
2022-08-11T03:36:55.777Z,12.32
2022-08-11T03:39:36.662Z,12.39
2022-08-11T03:42:16.760Z,12.37
2022-08-11T03:45:20.192Z,12.37
2022-08-11T03:48:10.350Z,12.38
2022-08-11T03:51:06.605Z,12.35
2022-08-11T03:53:44.076Z,12.32
2022-08-11T03:56:27.640Z,12.27
2022-08-11T03:59:00.171Z,12.19
2022-08-11T04:02:01.452Z,12.14
2022-08-11T04:04:55.511Z,12.11
2022-08-11T04:07:46.659Z,12.15
2022-08-11T04:10:36.063Z,12.18
2022-08-11T04:13:24.628Z,12.17
2022-08-11T04:16:11.486Z,12.21
2022-08-11T04:18:54.951Z,12.21
2022-08-11T04:21:51.900Z,12.26
2022-08-11T04:24:39.577Z,12.20
2022-08-11T04:27:39.017Z,12.22
2022-08-11T04:30:31.397Z,12.18
2022-08-11T04:32:58.772Z,12.14
2022-08-11T04:35:57.431Z,12.37
2022-08-11T04:38:58.550Z,12.41
2022-08-11T04:42:06.567Z,12.43
2022-08-11T04:44:57.380Z,12.40
2022-08-11T04:48:08.348Z,12.27
2022-08-11T04:51:17.574Z,12.33
2022-08-11T04:54:19.290Z,12.55
2022-08-11T04:57:07.611Z,12.76
2022-08-11T05:00:01.031Z,12.84
2022-08-11T05:03:01.561Z,12.97
2022-08-11T05:06:06.230Z,13.03
2022-08-11T05:08:54.874Z,13.18
2022-08-11T05:11:33.300Z,13.31
2022-08-11T05:14:46.450Z,13.38
2022-08-11T05:17:40.902Z,13.45
2022-08-11T05:20:29.780Z,13.53
2022-08-11T05:23:25.638Z,13.74
2022-08-11T05:26:47.685Z,13.86
2022-08-11T05:29:42.878Z,14.44
2022-08-11T05:32:32.655Z,14.68
2022-08-11T05:35:03.360Z,15.04
2022-08-11T05:37:29.654Z,15.32
2022-08-11T05:40:24.919Z,15.55
2022-08-11T05:43:13.729Z,15.77
2022-08-11T05:46:04.526Z,15.93
2022-08-11T05:48:55.393Z,16.33
2022-08-11T05:51:54.885Z,16.66
2022-08-11T05:54:42.944Z,16.98
2022-08-11T05:57:44.014Z,18.01
2022-08-11T06:00:17.005Z,19.58
2022-08-11T06:02:55.724Z,21.06
2022-08-11T06:05:23.213Z,21.80
2022-08-11T06:07:57.331Z,22.29
2022-08-11T06:10:33.303Z,23.26
2022-08-11T06:13:01.475Z,23.66
2022-08-11T06:15:31.225Z,23.72
2022-08-11T06:18:01.117Z,25.00
2022-08-11T06:20:33.418Z,25.18
2022-08-11T06:23:03.695Z,25.55
2022-08-11T06:25:33.035Z,25.62
2022-08-11T06:28:00.815Z,25.95
2022-08-11T06:30:39.664Z,24.96
2022-08-11T06:33:13.747Z,24.58
2022-08-11T06:35:49.480Z,25.00
2022-08-11T06:38:26.119Z,24.88
2022-08-11T06:41:15.448Z,26.08
2022-08-11T06:43:55.811Z,27.37
2022-08-11T06:46:51.204Z,26.28
2022-08-11T06:49:40.632Z,25.95
2022-08-11T06:52:34.597Z,25.36
2022-08-11T06:55:12.614Z,24.80
2022-08-11T06:58:14.146Z,25.55
2022-08-11T07:00:42.270Z,26.43
2022-08-11T07:03:13.649Z,26.05
2022-08-11T07:05:47.356Z,25.45
2022-08-11T07:08:51.988Z,23.88
2022-08-11T07:12:05.354Z,25.61
2022-08-11T07:14:51.671Z,25.97
2022-08-11T07:17:28.596Z,26.45
2022-08-11T07:20:20.159Z,26.81
2022-08-11T07:23:16.712Z,26.71
2022-08-11T07:26:05.618Z,26.08
2022-08-11T07:28:52.868Z,26.16
2022-08-11T07:31:29.656Z,26.86
2022-08-11T07:34:22.969Z,26.97
2022-08-11T07:36:54.016Z,24.90
2022-08-11T07:39:23.196Z,26.32
2022-08-11T07:41:52.942Z,26.47
2022-08-11T07:44:20.987Z,26.41
2022-08-11T07:47:09.082Z,27.28
2022-08-11T07:49:56.837Z,26.34
2022-08-11T07:52:29.389Z,27.93
2022-08-11T07:55:00.563Z,28.47
2022-08-11T07:58:14.563Z,27.55
2022-08-11T08:01:22.197Z,26.46
2022-08-11T08:04:09.318Z,25.81
2022-08-11T08:06:57.131Z,26.90
2022-08-11T08:09:43.530Z,28.26
2022-08-11T08:12:30.221Z,28.25
2022-08-11T08:15:16.343Z,27.14
2022-08-11T08:18:20.449Z,27.50
2022-08-11T08:20:47.177Z,27.13
2022-08-11T08:23:15.039Z,27.96
2022-08-11T08:25:45.079Z,28.78
2022-08-11T08:28:16.679Z,27.37
2022-08-11T08:30:47.770Z,26.54
2022-08-11T08:33:19.439Z,27.86
2022-08-11T08:35:54.311Z,27.56
2022-08-11T08:38:22.553Z,27.31
2022-08-11T08:40:55.787Z,28.52
2022-08-11T08:43:24.647Z,29.34
2022-08-11T08:45:55.297Z,28.88
2022-08-11T08:48:25.347Z,28.84
2022-08-11T08:51:19.263Z,27.35
2022-08-11T08:53:54.463Z,28.13
2022-08-11T08:56:28.117Z,28.01
2022-08-11T08:58:58.875Z,27.22
2022-08-11T09:01:29.238Z,27.98
2022-08-11T09:04:04.865Z,28.23
2022-08-11T09:06:40.615Z,29.05
2022-08-11T09:09:12.090Z,27.82
2022-08-11T09:11:55.263Z,28.40
2022-08-11T09:14:52.042Z,29.37
2022-08-11T09:17:20.352Z,29.49
2022-08-11T09:19:54.110Z,29.70
2022-08-11T09:22:42.660Z,28.92
2022-08-11T09:25:27.893Z,27.12
2022-08-11T09:27:56.511Z,28.22
2022-08-11T09:30:28.380Z,28.74
2022-08-11T09:32:58.535Z,28.11
2022-08-11T09:35:28.175Z,28.13
2022-08-11T09:38:15.047Z,28.93
2022-08-11T09:40:45.071Z,29.39
2022-08-11T09:43:39.646Z,28.58
2022-08-11T09:46:07.218Z,29.30
2022-08-11T09:48:41.186Z,29.41
2022-08-11T09:51:09.699Z,29.53
2022-08-11T09:53:40.846Z,28.60
2022-08-11T09:56:37.804Z,28.40
2022-08-11T09:59:05.753Z,30.09
2022-08-11T10:01:37.638Z,29.98
2022-08-11T10:04:37.850Z,28.78
2022-08-11T10:07:06.831Z,29.16
2022-08-11T10:09:49.443Z,29.13
2022-08-11T10:12:25.416Z,29.36
2022-08-11T10:15:14.737Z,29.45
2022-08-11T10:18:07.806Z,30.25
2022-08-11T10:20:37.119Z,27.88
2022-08-11T10:23:23.953Z,28.82
2022-08-11T10:26:09.908Z,29.45
2022-08-11T10:28:55.825Z,29.57
2022-08-11T10:31:57.987Z,29.89
2022-08-11T10:34:29.234Z,29.74
2022-08-11T10:36:57.707Z,30.34
2022-08-11T10:39:25.854Z,29.13
2022-08-11T10:42:25.532Z,29.46
2022-08-11T10:45:01.641Z,29.44
2022-08-11T10:47:46.751Z,29.19
2022-08-11T10:50:34.793Z,29.78
2022-08-11T10:53:21.719Z,29.77
2022-08-11T10:56:07.472Z,30.14
2022-08-11T10:58:47.710Z,31.32
2022-08-11T11:01:16.599Z,29.97
2022-08-11T11:03:44.353Z,31.95
2022-08-11T11:06:29.805Z,32.41
2022-08-11T11:09:04.578Z,31.72
2022-08-11T11:11:58.144Z,32.18
2022-08-11T11:14:50.656Z,31.62
2022-08-11T11:17:46.640Z,30.79
2022-08-11T11:20:34.644Z,30.70
2022-08-11T11:23:29.088Z,30.59
2022-08-11T11:26:29.099Z,30.10
2022-08-11T11:29:20.892Z,30.45
2022-08-11T11:32:09.592Z,30.20
2022-08-11T11:34:53.706Z,30.42
2022-08-11T11:37:23.716Z,30.09
2022-08-11T11:39:50.752Z,30.69
2022-08-11T11:42:19.492Z,30.18
2022-08-11T11:44:47.689Z,28.81
2022-08-11T11:47:16.041Z,31.03
2022-08-11T11:49:45.460Z,30.47
2022-08-11T11:52:18.908Z,30.46
2022-08-11T11:54:51.936Z,28.78
2022-08-11T11:57:39.700Z,29.09
2022-08-11T12:00:33.057Z,27.69
2022-08-11T12:03:03.589Z,29.95
2022-08-11T12:05:33.514Z,30.51
2022-08-11T12:08:17.827Z,30.63
2022-08-11T12:10:47.524Z,31.62
2022-08-11T12:13:35.771Z,31.00
2022-08-11T12:16:33.990Z,32.05
2022-08-11T12:18:56.874Z,30.18
2022-08-11T12:21:25.722Z,30.08
2022-08-11T12:24:11.439Z,30.30
2022-08-11T12:27:16.518Z,30.24
2022-08-11T12:29:50.250Z,30.80
2022-08-11T12:32:20.363Z,30.29
2022-08-11T12:34:48.875Z,30.68
2022-08-11T12:37:19.949Z,29.99
2022-08-11T12:40:16.122Z,31.52
2022-08-11T12:43:21.570Z,31.14
2022-08-11T12:45:54.858Z,30.47
2022-08-11T12:48:59.471Z,31.17
2022-08-11T12:52:12.292Z,31.35
2022-08-11T12:55:13.705Z,29.99
2022-08-11T12:58:05.787Z,31.02
2022-08-11T13:00:52.200Z,30.63
2022-08-11T13:03:39.648Z,30.89
2022-08-11T13:06:07.657Z,31.18
2022-08-11T13:08:37.585Z,32.10
2022-08-11T13:11:23.740Z,31.02
2022-08-11T13:13:57.029Z,29.13
2022-08-11T13:16:56.228Z,30.28
2022-08-11T13:19:23.931Z,30.41
2022-08-11T13:21:52.331Z,30.98
2022-08-11T13:24:22.294Z,30.38
2022-08-11T13:26:50.923Z,31.06
2022-08-11T13:29:24.385Z,30.92
2022-08-11T13:31:53.768Z,32.31
2022-08-11T13:34:22.951Z,30.48
2022-08-11T13:36:54.632Z,30.36
2022-08-11T13:39:24.579Z,30.63
2022-08-11T13:41:52.317Z,31.24
2022-08-11T13:44:25.267Z,29.98
2022-08-11T13:46:53.939Z,30.65
2022-08-11T13:49:22.203Z,30.35
2022-08-11T13:51:49.451Z,30.25
2022-08-11T13:54:23.160Z,30.46
2022-08-11T13:56:54.425Z,31.49
2022-08-11T13:59:23.993Z,31.86
2022-08-11T14:02:20.770Z,31.61
2022-08-11T14:05:02.115Z,30.92
2022-08-11T14:07:36.697Z,29.34
2022-08-11T14:10:06.819Z,30.53
2022-08-11T14:12:54.010Z,30.35
2022-08-11T14:15:25.520Z,31.75
2022-08-11T14:18:14.719Z,32.24
2022-08-11T14:21:02.583Z,31.26
2022-08-11T14:23:37.799Z,30.53
2022-08-11T14:26:23.608Z,30.69
2022-08-11T14:28:55.619Z,32.49
2022-08-11T14:31:28.364Z,30.39
2022-08-11T14:34:01.815Z,29.86
2022-08-11T14:36:39.630Z,29.39
2022-08-11T14:39:12.782Z,28.78
2022-08-11T14:42:19.551Z,28.86
2022-08-11T14:45:07.787Z,28.05
2022-08-11T14:47:37.065Z,27.93
2022-08-11T14:50:11.341Z,28.35
2022-08-11T14:52:45.191Z,28.36
2022-08-11T14:55:32.208Z,28.32
2022-08-11T14:58:00.913Z,27.93
2022-08-11T15:00:27.961Z,27.73
2022-08-11T15:03:11.551Z,28.10
2022-08-11T15:05:40.823Z,27.96
2022-08-11T15:08:09.099Z,27.68
2022-08-11T15:10:37.257Z,27.61
2022-08-11T15:13:05.760Z,27.82
2022-08-11T15:15:52.643Z,27.72
2022-08-11T15:18:24.623Z,27.52
2022-08-11T15:21:09.867Z,26.94
2022-08-11T15:23:58.179Z,27.30
2022-08-11T15:26:59.567Z,27.19
2022-08-11T15:29:51.137Z,27.40
2022-08-11T15:32:20.635Z,27.40
2022-08-11T15:35:14.474Z,27.38
2022-08-11T15:37:44.328Z,27.88
2022-08-11T15:40:44.548Z,27.56
2022-08-11T15:43:35.302Z,27.40
2022-08-11T15:46:08.055Z,27.42
2022-08-11T15:48:39.648Z,27.28
2022-08-11T15:51:10.625Z,27.22
2022-08-11T15:53:58.130Z,27.03
2022-08-11T15:56:31.122Z,27.44
2022-08-11T15:59:42.092Z,27.49
2022-08-11T16:02:30.778Z,27.57
2022-08-11T16:05:00.114Z,27.26
2022-08-11T16:07:30.307Z,27.24
2022-08-11T16:10:06.526Z,26.96
2022-08-11T16:12:40.499Z,27.02
2022-08-11T16:15:29.302Z,27.13
2022-08-11T16:18:06.646Z,26.90
2022-08-11T16:20:35.154Z,26.86
2022-08-11T16:23:04.702Z,26.87
2022-08-11T16:27:04.998Z,26.94
2022-08-11T16:28:23.501Z,26.77
2022-08-11T16:30:52.025Z,26.85
2022-08-11T16:33:48.428Z,26.90
2022-08-11T16:36:28.255Z,26.95
2022-08-11T16:38:56.814Z,26.82
2022-08-11T16:41:44.823Z,26.58
2022-08-11T16:44:32.913Z,26.68
2022-08-11T16:47:10.702Z,26.59
2022-08-11T16:49:43.434Z,26.52
2022-08-11T16:52:18.931Z,26.40
2022-08-11T16:54:47.563Z,26.51
2022-08-11T16:57:46.225Z,26.41
2022-08-11T17:00:16.156Z,26.29
2022-08-11T17:03:08.407Z,26.41
2022-08-11T17:05:55.254Z,26.37
2022-08-11T17:08:56.577Z,26.26
2022-08-11T17:11:46.491Z,26.13
2022-08-11T17:14:35.602Z,26.20
2022-08-11T17:17:06.583Z,26.14
2022-08-11T17:20:40.173Z,26.07
2022-08-11T17:22:41.686Z,25.93
2022-08-11T17:25:09.839Z,25.89
2022-08-11T17:27:38.582Z,25.94
2022-08-11T17:30:07.851Z,25.94
2022-08-11T17:33:00.583Z,25.98
2022-08-11T17:35:36.304Z,25.84
2022-08-11T17:38:05.972Z,25.71
2022-08-11T17:40:38.587Z,25.60
2022-08-11T17:43:27.556Z,25.50
2022-08-11T17:46:14.510Z,25.37
2022-08-11T17:48:47.916Z,25.16
2022-08-11T17:51:38.660Z,24.98
2022-08-11T17:54:25.621Z,24.81
2022-08-11T17:57:20.311Z,24.66
2022-08-11T17:59:53.115Z,24.49
2022-08-11T18:02:42.144Z,24.34
2022-08-11T18:05:13.638Z,24.11
2022-08-11T18:08:04.591Z,24.02
2022-08-11T18:10:50.841Z,23.83
2022-08-11T18:13:44.183Z,23.71
2022-08-11T18:16:29.553Z,23.64
2022-08-11T18:19:15.365Z,23.53
2022-08-11T18:22:15.767Z,23.45
2022-08-11T18:25:14.759Z,23.04
2022-08-11T18:28:03.805Z,22.86
2022-08-11T18:30:53.831Z,22.58
2022-08-11T18:34:06.877Z,22.19
2022-08-11T18:36:58.935Z,21.94
2022-08-11T18:39:54.644Z,21.71
2022-08-11T18:42:43.163Z,21.50
2022-08-11T18:45:33.054Z,21.40
2022-08-11T18:48:33.821Z,21.26
2022-08-11T18:51:31.718Z,21.07
2022-08-11T18:54:26.151Z,20.87
2022-08-11T18:57:13.642Z,20.73
2022-08-11T19:00:02.610Z,20.48
2022-08-11T19:02:50.828Z,20.20
2022-08-11T19:06:33.773Z,20.07
2022-08-11T19:08:50.169Z,20.10
2022-08-11T19:11:40.332Z,19.90
2022-08-11T19:14:30.930Z,19.88
2022-08-11T19:17:44.022Z,19.73
2022-08-11T19:20:39.255Z,19.52
2022-08-11T19:23:27.156Z,19.21
2022-08-11T19:26:13.431Z,19.07
2022-08-11T19:29:01.263Z,19.07
2022-08-11T19:31:48.127Z,18.94
2022-08-11T19:34:36.093Z,18.87
2022-08-11T19:37:24.954Z,18.76
2022-08-11T19:40:13.220Z,18.68
2022-08-11T19:43:01.109Z,18.56
2022-08-11T19:45:52.760Z,18.46
2022-08-11T19:48:41.136Z,18.40
2022-08-11T19:51:28.436Z,18.11
2022-08-11T19:54:14.559Z,18.07
2022-08-11T19:57:01.940Z,18.06
2022-08-11T19:59:48.339Z,17.80
2022-08-11T20:02:33.694Z,17.77
2022-08-11T20:05:19.077Z,17.56
2022-08-11T20:08:05.767Z,17.48
2022-08-11T20:10:52.938Z,17.36
2022-08-11T20:13:42.606Z,17.26
2022-08-11T20:16:31.943Z,17.04
2022-08-11T20:19:19.671Z,17.10
2022-08-11T20:22:13.244Z,16.96
2022-08-11T20:24:59.216Z,16.75
2022-08-11T20:27:44.651Z,16.77
2022-08-11T20:30:30.924Z,16.66
2022-08-11T20:33:17.127Z,16.64
2022-08-11T20:36:03.079Z,16.58
2022-08-11T20:38:51.943Z,16.39
2022-08-11T20:41:58.181Z,16.27
2022-08-11T20:44:45.052Z,16.27
2022-08-11T20:47:32.910Z,16.06
2022-08-11T20:50:39.022Z,16.02
2022-08-11T20:53:25.739Z,16.11
2022-08-11T20:56:17.006Z,15.91
2022-08-11T20:59:17.337Z,15.77
2022-08-11T21:02:09.733Z,15.77
2022-08-11T21:04:56.940Z,15.72
2022-08-11T21:07:55.167Z,15.56
2022-08-11T21:10:46.949Z,15.55
2022-08-11T21:13:34.152Z,15.56
2022-08-11T21:16:25.980Z,15.40
2022-08-11T21:19:16.196Z,15.35
2022-08-11T21:22:03.617Z,15.39
2022-08-11T21:24:51.711Z,15.16
2022-08-11T21:27:40.002Z,15.19
2022-08-11T21:30:26.115Z,15.21
2022-08-11T21:33:13.402Z,15.07
2022-08-11T21:36:00.775Z,15.09
2022-08-11T21:38:48.404Z,15.01
2022-08-11T21:41:35.202Z,14.85
2022-08-11T21:44:22.447Z,14.90
2022-08-11T21:47:08.849Z,14.84
2022-08-11T21:49:57.000Z,14.79
2022-08-11T21:52:42.195Z,14.83
2022-08-11T21:55:28.661Z,14.74
2022-08-11T21:58:15.873Z,14.64
2022-08-11T22:01:02.735Z,14.71
2022-08-11T22:03:49.737Z,14.67
2022-08-11T22:06:36.724Z,14.53
2022-08-11T22:09:22.411Z,14.59
2022-08-11T22:12:34.431Z,14.66
2022-08-11T22:15:14.009Z,14.69
2022-08-11T22:17:58.698Z,14.90
2022-08-11T22:20:46.032Z,15.11
2022-08-11T22:23:36.277Z,15.26
2022-08-11T22:26:22.729Z,15.45
2022-08-11T22:29:08.578Z,15.47
2022-08-11T22:31:57.127Z,15.46
2022-08-11T22:34:52.714Z,15.44
2022-08-11T22:37:40.954Z,15.21
2022-08-11T22:40:28.672Z,15.29
2022-08-11T22:43:13.857Z,15.03
2022-08-11T22:45:59.496Z,14.96
2022-08-11T22:48:47.239Z,14.78
2022-08-11T22:51:34.471Z,14.65
2022-08-11T22:54:21.778Z,14.39
2022-08-11T22:57:07.957Z,14.42
2022-08-11T22:59:55.058Z,14.41
2022-08-11T23:02:41.600Z,14.41
2022-08-11T23:05:27.769Z,14.41
2022-08-11T23:08:15.084Z,14.44
2022-08-11T23:11:00.482Z,14.42
2022-08-11T23:13:47.781Z,14.40
2022-08-11T23:16:33.484Z,14.30
2022-08-11T23:20:01.578Z,14.24
2022-08-11T23:22:36.894Z,14.15
2022-08-11T23:25:30.634Z,14.11
2022-08-11T23:28:18.335Z,13.97
2022-08-11T23:31:04.175Z,13.95
2022-08-11T23:33:51.493Z,13.83
2022-08-11T23:36:47.649Z,13.68
2022-08-11T23:39:34.132Z,13.67
2022-08-11T23:42:20.201Z,13.58
2022-08-11T23:45:07.256Z,13.48
2022-08-11T23:47:58.075Z,13.42
2022-08-11T23:50:43.838Z,13.30
2022-08-11T23:53:31.739Z,13.31
2022-08-11T23:56:21.703Z,13.24
2022-08-11T23:59:09.818Z,13.19
